Archer, NE

7:43 AM CDT on August 28, 2015 (GMT -0500)
Central Nebraska Regional | | Change Station
CLOSE
Current Station
Airport
Location: Grand Island,
Elevation: 1857 ft
Nearby Weather Stations

Elev 1857 ft 40.96 °N, 98.31 °W | Updated 37 minutes ago

Overcast
Overcast
67 °F
Feels Like 67 °F
N
7
Wind Variable Wind from WNW

Today
High -- | Low -- °F
--% Chance of Precip.
Yesterday
High -- | Low -- °F
Precip. -- in
6:54 AM 8:11 PM
Waxing Gibbous, 98% visible
Pressure 29.87 in
Visibility 10.0 miles
Clouds Scattered Clouds 300 ft
Overcast 1000 ft
Dew Point 65 °F
Humidity 93%
Rainfall 0.00 in
Snow Depth Not available.
UV 0 out of 12
Pollen 8.30 out of 12
Air Quality Not available.
Flu Activity Not available.
SPECI KGRI 281206Z 30006KT 10SM SCT003 OVC010 19/18 A2987 RMK AO2 CIG 007V012 T01940183
Pressure 29.87 in
Visibility 10.0 miles
Clouds Scattered Clouds 300 ft
Overcast 1000 ft
Dew Point 65 °F
Humidity 93%
Rainfall 0.00 in
Snow Depth Not available.
UV 0 out of 12
Pollen 8.30 out of 12
Air Quality Not available.
Flu Activity Not available.
SPECI KGRI 281206Z 30006KT 10SM SCT003 OVC010 19/18 A2987 RMK AO2 CIG 007V012 T01940183

10-Day Weather Forecast

×

Almanac

Astronomy

Aug. 28, 2015 Rise Set
Actual Time
Civil Twilight
Nautical Twilight
Astronomical Twilight
Moon
Length of Visible Light
Length of Day
Tomorrow will be .
, % of the Moon is Illuminated

Today's Extremes

State Highs State Lows

Community

WunderPhotos

Upload Photos

1,850,373 photos uploaded!

WunderBlogs® & News

Nearby

Air Quality

  Air Quality AQ Index Pollutant
Not available.

Snow Depth

Station Depth Elevation

Earthquake Activity

City Distance Mag. Time & Date
Minimum magnitude displayed is 2.5.

Coastal Water Temperatures

Place Temperature

Stations

Nearby Weather Stations

Station Location Temp. Windchill Dew Point Humidity Wind Precip. Elev Updated Type